Time;durP1;ratioP1;P1;durP2;ratioP2;P2;SDS_P1;SDS_P2;PMS_P1;PMS_P2;Temp;Humidity;BMP_temperature;BMP_pressure;BME280_temperature;BME280_humidity;BME280_pressure;Samples;Min_cycle;Max_cycle;Signal;HPM_P1;HPM_P2
2021/04/15 00:00:28;;;;;;;5.45;4.97;;;6.10;99.30;;;;;;5010690;28;21261;-81
2021/04/15 00:02:54;;;;;;;6.45;5.72;;;6.10;99.30;;;;;;5014689;28;20277;-80
2021/04/15 00:05:25;;;;;;;5.35;4.85;;;6.10;99.40;;;;;;5009522;28;20662;-80
2021/04/15 00:07:52;;;;;;;4.88;4.47;;;6.00;99.40;;;;;;5012792;28;20240;-79
2021/04/15 00:10:20;;;;;;;5.00;4.57;;;6.00;99.40;;;;;;5011862;28;20221;-80
2021/04/15 00:12:47;;;;;;;6.25;5.60;;;5.90;99.50;;;;;;5010392;28;20234;-80
2021/04/15 00:15:16;;;;;;;12.95;5.72;;;5.90;99.50;;;;;;5016437;28;20206;-79
2021/04/15 00:17:42;;;;;;;6.03;5.50;;;5.90;99.60;;;;;;5009815;28;20203;-77
2021/04/15 00:20:10;;;;;;;8.15;5.93;;;5.80;99.50;;;;;;5011597;28;20210;-80
2021/04/15 00:22:36;;;;;;;6.93;6.22;;;5.80;99.60;;;;;;5009189;28;20198;-80
2021/04/15 00:25:04;;;;;;;6.70;6.10;;;5.80;99.60;;;;;;5010002;28;20198;-80
2021/04/15 00:27:30;;;;;;;6.93;5.90;;;5.70;99.60;;;;;;5012973;28;20206;-80
2021/04/15 00:29:58;;;;;;;6.03;5.32;;;5.70;99.60;;;;;;5008775;28;20215;-80
2021/04/15 00:32:25;;;;;;;6.68;6.07;;;5.60;99.60;;;;;;5010523;28;20201;-80
2021/04/15 00:34:51;;;;;;;6.45;5.90;;;5.50;99.60;;;;;;5008255;28;20240;-80
2021/04/15 00:37:17;;;;;;;6.10;5.60;;;5.50;99.70;;;;;;5014979;28;20205;-80
2021/04/15 00:39:44;;;;;;;6.05;5.57;;;5.50;99.70;;;;;;5008914;28;20209;-78
2021/04/15 00:42:11;;;;;;;5.55;5.15;;;5.50;99.80;;;;;;5010654;28;20642;-79
2021/04/15 00:44:37;;;;;;;6.55;6.03;;;5.50;99.90;;;;;;5013933;28;20289;-78
2021/04/15 00:47:09;;;;;;;7.03;6.18;;;5.40;99.90;;;;;;5010124;28;20201;-81
2021/04/15 00:49:41;;;;;;;6.43;5.60;;;5.40;99.90;;;;;;5007858;28;20210;-79
2021/04/15 00:52:11;;;;;;;6.70;6.00;;;5.40;99.90;;;;;;5014760;28;20206;-79
2021/04/15 00:54:41;;;;;;;9.57;6.35;;;5.40;99.90;;;;;;5008540;28;20225;-79
2021/04/15 00:57:13;;;;;;;7.55;6.65;;;5.30;99.90;;;;;;5009661;28;20200;-79
2021/04/15 00:59:40;;;;;;;6.03;5.53;;;5.30;99.90;;;;;;5004225;28;20256;-80
2021/04/15 01:02:10;;;;;;;6.85;5.85;;;5.20;99.80;;;;;;5008245;28;20214;-79
2021/04/15 01:04:37;;;;;;;6.50;5.82;;;5.20;99.80;;;;;;5013918;28;20565;-79
2021/04/15 01:07:04;;;;;;;6.68;5.75;;;5.10;99.70;;;;;;5008582;28;20210;-80
2021/04/15 01:09:30;;;;;;;10.50;6.53;;;5.10;99.80;;;;;;5009551;28;20206;-79
2021/04/15 01:12:08;;;;;;;6.60;6.10;;;5.10;99.80;;;;;;5009442;28;20577;-78
2021/04/15 01:14:47;;;;;;;6.70;6.10;;;5.10;99.90;;;;;;5014575;28;20271;-80
2021/04/15 01:17:26;;;;;;;7.25;6.57;;;5.00;99.80;;;;;;5008694;28;20201;-80
2021/04/15 01:20:31;;;;;;;6.65;6.15;;;5.00;99.80;;;;;;5006718;28;20213;-79
2021/04/15 01:23:08;;;;;;;7.75;6.13;;;5.00;99.80;;;;;;5007897;28;20206;-78
2021/04/15 01:26:12;;;;;;;6.85;5.30;;;5.00;99.80;;;;;;5008504;28;20204;-80
2021/04/15 01:28:58;;;;;;;5.95;5.35;;;5.00;99.80;;;;;;5007002;28;20190;-79
2021/04/15 01:31:40;;;;;;;9.52;6.90;;;5.00;99.80;;;;;;5007494;28;20229;-78
2021/04/15 01:34:11;;;;;;;7.95;5.75;;;5.00;99.80;;;;;;5002498;28;20595;-80
2021/04/15 01:36:43;;;;;;;5.60;5.10;;;4.90;99.80;;;;;;5009132;28;20673;-78
2021/04/15 01:39:15;;;;;;;10.23;5.82;;;4.80;99.80;;;;;;5009091;28;20201;-79
2021/04/15 01:41:48;;;;;;;5.53;5.10;;;4.80;99.70;;;;;;5008744;28;20201;-80
2021/04/15 01:44:19;;;;;;;7.50;5.18;;;4.70;99.40;;;;;;5009415;28;20278;-80
2021/04/15 01:46:46;;;;;;;5.93;5.32;;;4.60;99.30;;;;;;5008044;28;20259;-80
2021/04/15 01:49:15;;;;;;;5.82;5.32;;;4.70;99.40;;;;;;5011899;28;20207;-79
2021/04/15 01:51:44;;;;;;;5.45;4.90;;;4.70;99.40;;;;;;5009148;28;20294;-78
2021/04/15 01:54:15;;;;;;;6.03;5.50;;;4.60;99.50;;;;;;5007918;28;20213;-78
2021/04/15 01:56:46;;;;;;;5.93;5.43;;;4.60;99.40;;;;;;5008995;28;20381;-79
2021/04/15 01:59:18;;;;;;;6.53;5.95;;;4.50;99.30;;;;;;5013934;28;20213;-79
2021/04/15 02:01:48;;;;;;;6.30;5.80;;;4.50;99.40;;;;;;5004723;28;20197;-80
2021/04/15 02:04:21;;;;;;;5.25;4.80;;;4.50;99.50;;;;;;5008851;28;20209;-78
2021/04/15 02:06:53;;;;;;;6.05;5.45;;;4.50;99.60;;;;;;5005594;28;20495;-78
2021/04/15 02:09:21;;;;;;;5.88;5.35;;;4.40;99.50;;;;;;5008709;28;20205;-79
2021/04/15 02:11:50;;;;;;;5.47;4.97;;;4.40;99.50;;;;;;5010944;28;20221;-79
2021/04/15 02:14:22;;;;;;;7.20;6.05;;;4.40;99.60;;;;;;5004921;28;20205;-79
2021/04/15 02:16:50;;;;;;;6.13;5.53;;;4.40;99.60;;;;;;5013644;28;20202;-80
2021/04/15 02:19:21;;;;;;;6.68;6.00;;;4.30;99.60;;;;;;5008029;28;20254;-79
2021/04/15 02:21:53;;;;;;;7.85;5.43;;;4.30;99.70;;;;;;5008723;28;20197;-80
2021/04/15 02:24:28;;;;;;;5.72;5.25;;;4.30;99.70;;;;;;5007875;28;20719;-80
2021/04/15 02:27:03;;;;;;;5.45;4.95;;;4.30;99.60;;;;;;5007567;28;20675;-80
2021/04/15 02:29:37;;;;;;;6.15;5.50;;;4.20;99.60;;;;;;5009767;28;20206;-80
2021/04/15 02:32:09;;;;;;;7.43;5.80;;;4.20;99.60;;;;;;5007103;28;20621;-79
2021/04/15 02:34:39;;;;;;;6.57;5.97;;;4.20;99.60;;;;;;5009698;28;20233;-80
2021/04/15 02:37:10;;;;;;;7.88;5.18;;;4.10;99.60;;;;;;5009180;28;20211;-78
2021/04/15 02:39:41;;;;;;;5.57;5.05;;;4.20;99.70;;;;;;5009541;28;20201;-80
2021/04/15 02:42:10;;;;;;;11.65;5.60;;;4.10;99.60;;;;;;5008007;28;20217;-80
2021/04/15 02:44:47;;;;;;;6.10;5.60;;;4.10;99.70;;;;;;5007635;28;20204;-79
2021/04/15 02:47:18;;;;;;;6.55;5.95;;;4.00;99.60;;;;;;5013831;28;20204;-79
2021/04/15 02:49:45;;;;;;;6.00;5.50;;;4.00;99.60;;;;;;5007483;28;20201;-79
2021/04/15 02:52:17;;;;;;;6.13;5.60;;;4.00;99.60;;;;;;5014241;28;20584;-80
2021/04/15 02:54:48;;;;;;;6.13;5.63;;;4.00;99.70;;;;;;5013250;28;20386;-80
2021/04/15 02:57:19;;;;;;;5.50;5.00;;;4.00;99.70;;;;;;5010721;28;20207;-81
2021/04/15 02:59:50;;;;;;;5.68;5.18;;;4.00;99.80;;;;;;5010601;28;20220;-79
2021/04/15 03:02:21;;;;;;;6.25;5.65;;;4.00;99.80;;;;;;5006756;28;20534;-79
2021/04/15 03:04:52;;;;;;;5.95;5.45;;;4.00;99.90;;;;;;5011627;28;20194;-79
2021/04/15 03:07:19;;;;;;;7.18;6.47;;;4.00;99.90;;;;;;5010810;28;20256;-78
2021/04/15 03:09:46;;;;;;;5.63;5.20;;;4.00;99.90;;;;;;5010241;28;20303;-80
2021/04/15 03:12:18;;;;;;;7.75;6.50;;;4.00;99.90;;;;;;5012914;28;20207;-80
2021/04/15 03:14:51;;;;;;;5.93;5.50;;;4.00;99.90;;;;;;5015143;28;20661;-78
2021/04/15 03:17:21;;;;;;;7.68;6.40;;;4.00;99.90;;;;;;5011094;28;20890;-79
2021/04/15 03:19:51;;;;;;;6.68;6.18;;;4.00;99.80;;;;;;5013946;28;20260;-79
2021/04/15 03:22:23;;;;;;;6.28;5.78;;;4.00;99.80;;;;;;5010374;28;20692;-78
2021/04/15 03:24:53;;;;;;;6.43;5.82;;;3.90;99.80;;;;;;5011556;28;20211;-79
2021/04/15 03:27:25;;;;;;;7.60;6.65;;;3.90;99.80;;;;;;5013454;28;20306;-78
2021/04/15 03:29:58;;;;;;;6.38;5.88;;;3.90;99.80;;;;;;5010263;28;20196;-78
2021/04/15 03:32:33;;;;;;;9.05;6.22;;;3.90;99.80;;;;;;5010500;28;20201;-78
2021/04/15 03:35:05;;;;;;;17.42;6.57;;;3.90;99.80;;;;;;5017486;28;20230;-78
2021/04/15 03:37:40;;;;;;;6.45;5.95;;;3.90;99.90;;;;;;5005835;28;20294;-81
2021/04/15 03:40:09;;;;;;;5.40;5.00;;;3.80;99.90;;;;;;5011548;28;20203;-79
2021/04/15 03:42:42;;;;;;;7.40;6.70;;;3.80;99.90;;;;;;5010716;28;20204;-79
2021/04/15 03:45:15;;;;;;;6.82;6.22;;;3.80;99.90;;;;;;5010974;28;20890;-80
2021/04/15 03:47:47;;;;;;;6.55;6.00;;;3.70;99.80;;;;;;5015787;28;20747;-80
2021/04/15 03:50:19;;;;;;;7.47;6.65;;;3.70;99.80;;;;;;5009556;28;20711;-80
2021/04/15 03:52:54;;;;;;;7.15;5.35;;;3.70;99.90;;;;;;5010610;28;20217;-80
2021/04/15 03:55:25;;;;;;;6.03;5.57;;;3.70;99.90;;;;;;5008967;28;20208;-79
2021/04/15 03:57:56;;;;;;;6.50;6.00;;;3.70;99.90;;;;;;5012691;28;20287;-80
2021/04/15 04:00:30;;;;;;;7.30;6.60;;;3.80;99.80;;;;;;5008286;28;20706;-79
2021/04/15 04:03:00;;;;;;;7.07;6.47;;;3.80;99.80;;;;;;5005436;28;20230;-79
2021/04/15 04:05:29;;;;;;;6.90;6.30;;;3.80;99.80;;;;;;5015851;28;20383;-78
2021/04/15 04:08:00;;;;;;;7.65;6.95;;;3.90;99.90;;;;;;5011824;28;20668;-80
2021/04/15 04:10:30;;;;;;;7.18;6.43;;;3.90;99.90;;;;;;5009168;28;20575;-79
2021/04/15 04:13:15;;;;;;;7.13;6.43;;;3.90;99.90;;;;;;5013184;28;20200;-80
2021/04/15 04:15:47;;;;;;;8.77;5.68;;;3.90;99.90;;;;;;5005356;28;20566;-80
2021/04/15 04:18:18;;;;;;;6.88;6.00;;;3.80;99.80;;;;;;5011680;28;20578;-80
2021/04/15 04:20:44;;;;;;;6.15;5.57;;;3.70;99.60;;;;;;5010863;28;20208;-80
2021/04/15 04:23:22;;;;;;;5.60;5.20;;;3.70;99.50;;;;;;5013937;28;20660;-78
2021/04/15 04:25:58;;;;;;;5.85;5.35;;;3.60;99.50;;;;;;5010055;28;20254;-78
2021/04/15 04:28:30;;;;;;;5.85;5.38;;;3.60;99.50;;;;;;5015054;28;20203;-80
2021/04/15 04:31:03;;;;;;;8.70;5.80;;;3.60;99.60;;;;;;5013866;28;20254;-81
2021/04/15 04:33:38;;;;;;;5.78;5.20;;;3.60;99.60;;;;;;5009363;28;20209;-80
2021/04/15 04:36:07;;;;;;;6.05;5.45;;;3.50;99.70;;;;;;5011535;28;20206;-78
2021/04/15 04:38:33;;;;;;;6.55;6.05;;;3.50;99.70;;;;;;5008502;28;20211;-79
2021/04/15 04:41:07;;;;;;;6.10;5.60;;;3.50;99.70;;;;;;5009014;28;20257;-80
2021/04/15 04:43:41;;;;;;;14.57;6.55;;;3.50;99.70;;;;;;5008069;28;20200;-79
2021/04/15 04:46:13;;;;;;;6.15;5.75;;;3.50;99.80;;;;;;5015568;28;20212;-79
2021/04/15 04:48:43;;;;;;;6.50;5.90;;;3.50;99.90;;;;;;5008719;28;20207;-78
2021/04/15 04:51:14;;;;;;;5.75;5.30;;;3.50;99.90;;;;;;5013584;28;20232;-79
2021/04/15 04:53:41;;;;;;;6.47;5.88;;;3.50;99.90;;;;;;5013966;28;20199;-80
2021/04/15 04:56:29;;;;;;;7.20;6.50;;;3.50;99.90;;;;;;5008930;28;20244;-79
2021/04/15 04:58:58;;;;;;;7.25;6.13;;;3.50;99.90;;;;;;5008118;28;20200;-80
2021/04/15 05:01:25;;;;;;;10.00;7.13;;;3.50;99.90;;;;;;5008623;28;20229;-80
2021/04/15 05:03:58;;;;;;;7.10;6.50;;;3.50;99.90;;;;;;5009269;28;20301;-78
2021/04/15 05:06:27;;;;;;;7.80;7.10;;;3.50;99.90;;;;;;5011740;28;20204;-81
2021/04/15 05:09:01;;;;;;;7.50;6.65;;;3.50;99.90;;;;;;5007592;28;20647;-80
2021/04/15 05:11:29;;;;;;;6.97;6.47;;;3.50;99.90;;;;;;5013646;28;20227;-80
2021/04/15 05:13:57;;;;;;;8.55;7.78;;;3.50;99.90;;;;;;5008629;28;20211;-80
2021/04/15 05:16:26;;;;;;;8.45;6.47;;;3.60;99.90;;;;;;5009124;28;20197;-80
2021/04/15 05:18:53;;;;;;;11.23;7.07;;;3.60;99.90;;;;;;5009740;28;20203;-80
2021/04/15 05:21:23;;;;;;;8.27;7.43;;;3.70;99.90;;;;;;5008561;28;20287;-80
2021/04/15 05:23:56;;;;;;;8.68;7.78;;;3.70;99.90;;;;;;5011862;28;20310;-79
2021/04/15 05:26:25;;;;;;;7.25;6.65;;;3.80;99.90;;;;;;5008604;28;20192;-81
2021/04/15 05:28:56;;;;;;;7.30;6.53;;;3.80;99.90;;;;;;5007994;28;20205;-79
2021/04/15 05:31:26;;;;;;;6.95;6.35;;;3.80;99.90;;;;;;5018792;28;20249;-77
2021/04/15 05:33:54;;;;;;;6.55;6.03;;;3.80;99.90;;;;;;5016088;28;20345;-78
2021/04/15 05:36:23;;;;;;;8.00;7.30;;;3.80;99.90;;;;;;5010873;28;20352;-79
2021/04/15 05:38:52;;;;;;;6.05;5.60;;;3.80;99.90;;;;;;5007465;28;20209;-79
2021/04/15 05:41:23;;;;;;;6.43;5.88;;;3.80;99.90;;;;;;5010801;28;20458;-80
2021/04/15 05:43:53;;;;;;;6.78;6.22;;;3.70;99.90;;;;;;5013797;28;20198;-80
2021/04/15 05:46:23;;;;;;;6.07;5.68;;;3.70;99.90;;;;;;5007964;28;20602;-77
2021/04/15 05:48:57;;;;;;;7.28;6.70;;;3.80;99.90;;;;;;5008742;28;20216;-78
2021/04/15 05:51:28;;;;;;;8.45;7.20;;;3.80;99.90;;;;;;5005471;28;20239;-79
2021/04/15 05:54:03;;;;;;;6.57;5.97;;;3.80;99.90;;;;;;5005118;28;20219;-78
2021/04/15 05:56:35;;;;;;;6.30;5.80;;;3.80;99.90;;;;;;5007837;28;20204;-80
2021/04/15 05:59:09;;;;;;;8.00;6.90;;;3.90;99.90;;;;;;5007431;28;20208;-79
2021/04/15 06:01:43;;;;;;;6.72;6.13;;;3.90;99.90;;;;;;5007032;28;20228;-79
2021/04/15 06:04:19;;;;;;;7.70;6.97;;;4.00;99.90;;;;;;5008755;28;20274;-79
2021/04/15 06:06:47;;;;;;;8.02;7.32;;;4.00;99.90;;;;;;5003990;28;20223;-78
2021/04/15 06:09:15;;;;;;;7.32;6.68;;;4.10;99.90;;;;;;5009484;28;20197;-78
2021/04/15 06:11:58;;;;;;;7.63;6.88;;;4.10;99.90;;;;;;5006339;28;20231;-80
2021/04/15 06:14:32;;;;;;;7.88;7.10;;;4.20;99.90;;;;;;5004437;28;20661;-78
2021/04/15 06:17:19;;;;;;;9.15;6.75;;;4.30;99.90;;;;;;5006996;28;20308;-79
2021/04/15 06:19:50;;;;;;;7.18;6.47;;;4.30;99.90;;;;;;5011611;28;20248;-79
2021/04/15 06:22:21;;;;;;;8.07;7.38;;;4.40;99.90;;;;;;5007047;28;20708;-78
2021/04/15 06:24:52;;;;;;;10.70;7.07;;;4.50;99.90;;;;;;5010856;28;20655;-78
2021/04/15 06:27:20;;;;;;;12.65;7.28;;;4.60;99.90;;;;;;5011077;28;20255;-78
2021/04/15 06:29:53;;;;;;;8.90;8.07;;;4.70;99.90;;;;;;5011139;28;20234;-77
2021/04/15 06:32:27;;;;;;;10.38;8.00;;;4.70;99.90;;;;;;5013861;28;20288;-79
2021/04/15 06:34:56;;;;;;;12.88;8.90;;;4.70;99.90;;;;;;5013199;28;20714;-79
2021/04/15 06:37:34;;;;;;;10.85;8.30;;;4.80;99.90;;;;;;5015886;28;20217;-78
2021/04/15 06:40:26;;;;;;;10.73;7.90;;;4.90;99.90;;;;;;5010180;28;20212;-79
2021/04/15 06:43:06;;;;;;;14.93;8.65;;;4.90;99.90;;;;;;5014836;28;20201;-78
2021/04/15 06:45:50;;;;;;;10.25;8.32;;;5.00;99.90;;;;;;5007642;28;20583;-79
2021/04/15 06:48:43;;;;;;;12.60;9.07;;;5.10;99.90;;;;;;5007370;28;20223;-78
2021/04/15 06:51:38;;;;;;;11.23;9.30;;;5.20;99.90;;;;;;5009735;28;20235;-80
2021/04/15 06:54:43;;;;;;;13.77;9.25;;;5.20;99.90;;;;;;5002429;28;20209;-78
2021/04/15 06:57:25;;;;;;;13.52;8.20;;;5.30;99.90;;;;;;4999423;28;20198;-78
2021/04/15 07:00:18;;;;;;;13.60;9.13;;;5.40;99.90;;;;;;5003955;28;20222;-80
2021/04/15 07:03:00;;;;;;;10.88;7.00;;;5.50;99.90;;;;;;5003275;28;20203;-77
2021/04/15 07:05:30;;;;;;;15.40;7.80;;;5.60;99.90;;;;;;5001917;28;20202;-80
2021/04/15 07:08:04;;;;;;;7.57;6.57;;;5.70;99.90;;;;;;4999981;28;20199;-78
2021/04/15 07:10:58;;;;;;;7.72;7.03;;;5.80;99.90;;;;;;5003318;28;20206;-78
2021/04/15 07:13:42;;;;;;;8.20;6.90;;;5.80;99.90;;;;;;5004420;28;20202;-79
2021/04/15 07:16:26;;;;;;;9.13;7.35;;;6.00;99.90;;;;;;5007280;28;20223;-79
2021/04/15 07:19:33;;;;;;;11.57;6.65;;;6.00;99.90;;;;;;5001791;28;20767;-79
2021/04/15 07:22:15;;;;;;;9.85;6.43;;;6.10;99.90;;;;;;5004582;28;20392;-78
2021/04/15 07:25:01;;;;;;;7.65;6.85;;;6.20;99.90;;;;;;5006397;28;20198;-78
2021/04/15 07:27:44;;;;;;;6.32;5.72;;;6.30;99.90;;;;;;5005528;28;20562;-78
2021/04/15 07:30:26;;;;;;;11.60;6.15;;;6.40;99.90;;;;;;5005702;28;20325;-78
2021/04/15 07:33:17;;;;;;;7.85;6.82;;;6.40;99.90;;;;;;5009903;28;20248;-79
2021/04/15 07:36:00;;;;;;;7.75;5.78;;;6.50;99.90;;;;;;5005755;28;20734;-78
2021/04/15 07:38:48;;;;;;;7.22;5.60;;;6.50;99.90;;;;;;5007026;28;20203;-79
2021/04/15 07:41:49;;;;;;;9.55;5.88;;;6.50;99.90;;;;;;5005062;28;20689;-80
2021/04/15 07:44:35;;;;;;;7.25;5.55;;;6.60;99.90;;;;;;5002051;28;20229;-80
2021/04/15 07:47:20;;;;;;;6.80;5.30;;;6.70;99.90;;;;;;5009238;28;20202;-79
2021/04/15 07:50:17;;;;;;;6.97;5.55;;;6.80;99.90;;;;;;5004844;28;20213;-77
2021/04/15 07:53:26;;;;;;;6.35;4.75;;;6.90;99.90;;;;;;4994026;28;20198;-79
2021/04/15 07:56:43;;;;;;;7.18;5.88;;;7.00;99.90;;;;;;4980142;28;20799;-77
2021/04/15 07:59:52;;;;;;;6.15;4.13;;;7.00;99.90;;;;;;4949803;28;20677;-79
2021/04/15 08:02:35;;;;;;;11.70;4.47;;;7.10;99.90;;;;;;4996826;28;20297;-78
2021/04/15 08:05:28;;;;;;;6.10;4.80;;;7.30;99.90;;;;;;5003619;28;20216;-78
2021/04/15 08:08:15;;;;;;;5.53;4.43;;;7.40;99.90;;;;;;4998546;28;20293;-77
2021/04/15 08:11:09;;;;;;;5.75;5.22;;;7.50;99.90;;;;;;5006615;28;20248;-80
2021/04/15 08:13:57;;;;;;;5.00;4.20;;;7.60;99.90;;;;;;4996000;28;20698;-79
2021/04/15 08:16:37;;;;;;;5.95;4.60;;;7.70;99.90;;;;;;4999039;28;20251;-77
2021/04/15 08:19:27;;;;;;;5.38;4.28;;;7.80;99.90;;;;;;5006100;28;20230;-78
2021/04/15 08:21:59;;;;;;;8.82;4.80;;;7.80;99.90;;;;;;5003871;28;20198;-77
2021/04/15 08:24:31;;;;;;;5.32;4.78;;;8.00;99.90;;;;;;5007344;28;20241;-79
2021/04/15 08:27:35;;;;;;;6.60;4.65;;;8.10;99.90;;;;;;5010783;28;20211;-80
2021/04/15 08:30:37;;;;;;;9.35;5.30;;;8.30;99.90;;;;;;5005128;28;20257;-77
2021/04/15 08:33:20;;;;;;;8.95;4.80;;;8.50;99.90;;;;;;5005437;28;20385;-78
2021/04/15 08:36:18;;;;;;;5.53;4.80;;;8.60;99.90;;;;;;5004266;28;20239;-78
2021/04/15 08:38:58;;;;;;;7.25;4.72;;;8.80;99.90;;;;;;5005710;28;20218;-78
2021/04/15 08:41:40;;;;;;;7.15;4.80;;;8.90;99.90;;;;;;5010504;28;20210;-78
2021/04/15 08:44:31;;;;;;;6.32;4.20;;;9.10;99.90;;;;;;5004306;28;20202;-79
2021/04/15 08:47:10;;;;;;;8.45;4.05;;;9.30;99.90;;;;;;4975159;28;20655;-79
2021/04/15 08:49:47;;;;;;;7.60;4.28;;;9.30;98.70;;;;;;5004926;28;20259;-80
2021/04/15 08:52:24;;;;;;;7.65;3.67;;;9.40;99.10;;;;;;5000075;28;20224;-78
2021/04/15 08:55:02;;;;;;;5.97;4.90;;;9.40;98.50;;;;;;5004337;28;20203;-79
2021/04/15 08:57:40;;;;;;;3.50;3.20;;;9.40;97.80;;;;;;5001763;28;20295;-77
2021/04/15 09:00:19;;;;;;;5.63;3.40;;;9.50;98.10;;;;;;5005900;28;20235;-77
2021/04/15 09:03:05;;;;;;;5.30;4.50;;;9.60;97.80;;;;;;5006804;28;20571;-77
2021/04/15 09:05:47;;;;;;;7.70;5.13;;;9.70;97.30;;;;;;5006706;28;20834;-79
2021/04/15 09:08:21;;;;;;;5.22;3.75;;;9.70;97.10;;;;;;5005855;28;20199;-77
2021/04/15 09:10:56;;;;;;;6.03;4.07;;;9.80;97.50;;;;;;5000090;28;20697;-80
2021/04/15 09:13:33;;;;;;;5.32;4.38;;;10.00;97.50;;;;;;5005999;28;20206;-78
2021/04/15 09:16:31;;;;;;;6.03;5.28;;;10.00;95.60;;;;;;5002104;28;20198;-78
2021/04/15 09:19:07;;;;;;;4.70;4.30;;;9.90;95.50;;;;;;4992899;28;20231;-77
2021/04/15 09:21:48;;;;;;;4.28;3.97;;;9.80;95.40;;;;;;4999785;28;20693;-78
2021/04/15 09:24:27;;;;;;;5.15;4.65;;;9.70;95.40;;;;;;4996789;28;20210;-79
2021/04/15 09:27:30;;;;;;;5.78;4.10;;;9.50;95.40;;;;;;5003435;28;22517;-79
2021/04/15 09:30:28;;;;;;;4.45;4.10;;;9.40;95.60;;;;;;5009198;28;20188;-78
2021/04/15 09:33:02;;;;;;;6.43;4.35;;;9.50;95.90;;;;;;5001033;28;20824;-79
2021/04/15 09:35:52;;;;;;;6.75;4.35;;;9.60;95.30;;;;;;5000135;28;20330;-78
2021/04/15 09:38:49;;;;;;;10.88;5.07;;;9.70;95.30;;;;;;5004656;28;20215;-78
2021/04/15 09:41:42;;;;;;;5.72;5.13;;;9.90;95.90;;;;;;5004755;28;20208;-78
2021/04/15 09:44:32;;;;;;;4.72;4.22;;;9.80;95.10;;;;;;5007842;28;20216;-79
2021/04/15 09:47:11;;;;;;;3.35;3.05;;;9.80;95.00;;;;;;5003067;28;20253;-78
2021/04/15 09:49:49;;;;;;;3.38;3.13;;;9.80;95.00;;;;;;5005939;28;20209;-78
2021/04/15 09:52:48;;;;;;;7.78;4.80;;;9.80;94.30;;;;;;5005291;28;20231;-79
2021/04/15 09:55:34;;;;;;;5.20;4.75;;;9.70;93.70;;;;;;5008654;28;20213;-78
2021/04/15 09:58:12;;;;;;;6.38;3.38;;;9.70;94.40;;;;;;5005392;28;20211;-78
2021/04/15 10:00:41;;;;;;;2.60;2.40;;;9.60;92.90;;;;;;5012482;28;20216;-79
2021/04/15 10:03:18;;;;;;;4.47;3.05;;;9.70;93.60;;;;;;4999409;28;20655;-78
2021/04/15 10:06:02;;;;;;;6.10;4.82;;;9.80;93.70;;;;;;5005308;28;20206;-80
2021/04/15 10:08:36;;;;;;;5.22;4.50;;;10.00;93.30;;;;;;5007605;28;20221;-80
2021/04/15 10:11:17;;;;;;;4.55;4.00;;;10.20;92.70;;;;;;5008373;28;20237;-79
2021/04/15 10:13:51;;;;;;;8.23;5.53;;;10.20;92.70;;;;;;5008057;28;20205;-77
2021/04/15 10:16:22;;;;;;;5.72;5.22;;;10.30;92.30;;;;;;5009845;28;20653;-77
2021/04/15 10:19:32;;;;;;;5.80;5.00;;;10.50;92.70;;;;;;5008490;28;20701;-78
2021/04/15 10:22:08;;;;;;;6.15;5.00;;;10.50;91.80;;;;;;5008902;28;20300;-78
2021/04/15 10:24:39;;;;;;;5.90;4.63;;;10.60;91.30;;;;;;5008663;28;20200;-79
2021/04/15 10:27:39;;;;;;;7.05;5.72;;;10.60;91.20;;;;;;5010330;28;20206;-78
2021/04/15 10:30:44;;;;;;;7.07;4.78;;;10.70;91.40;;;;;;5007118;28;20284;-80
2021/04/15 10:33:39;;;;;;;7.97;5.45;;;11.00;91.50;;;;;;4957529;28;20202;-80
2021/04/15 10:36:33;;;;;;;5.03;4.53;;;11.30;91.90;;;;;;5006547;28;20589;-78
2021/04/15 10:39:36;;;;;;;8.70;5.20;;;11.50;91.60;;;;;;4967773;28;20206;-78
2021/04/15 10:42:24;;;;;;;9.02;6.07;;;11.40;90.20;;;;;;4913889;28;20828;-79
2021/04/15 10:45:21;;;;;;;14.75;9.00;;;11.20;90.10;;;;;;5009030;28;20289;-78
2021/04/15 10:48:05;;;;;;;7.85;7.05;;;11.10;91.70;;;;;;5008553;28;20213;-79
2021/04/15 10:50:44;;;;;;;9.57;8.55;;;11.20;91.60;;;;;;5014575;28;20611;-78
2021/04/15 10:53:16;;;;;;;8.70;6.90;;;11.30;91.80;;;;;;5007392;28;20199;-78
2021/04/15 10:55:47;;;;;;;9.07;7.50;;;11.40;92.20;;;;;;5008690;28;20284;-77
2021/04/15 10:58:34;;;;;;;6.97;5.90;;;11.50;91.50;;;;;;5008621;28;20465;-80
2021/04/15 11:01:26;;;;;;;7.15;6.50;;;11.60;89.20;;;;;;5007042;28;20575;-79
2021/04/15 11:03:53;;;;;;;5.67;5.07;;;11.60;89.20;;;;;;5006580;28;20639;-79
2021/04/15 11:06:41;;;;;;;6.30;5.70;;;11.50;88.10;;;;;;5009058;28;20465;-79
2021/04/15 11:09:33;;;;;;;6.23;5.60;;;11.40;86.30;;;;;;5006123;28;21087;-81
2021/04/15 11:12:04;;;;;;;5.60;5.00;;;11.50;87.90;;;;;;5008041;28;20604;-77
2021/04/15 11:14:37;;;;;;;4.90;4.15;;;11.60;88.20;;;;;;5010101;28;21394;-78
2021/04/15 11:17:14;;;;;;;8.13;5.43;;;11.70;86.90;;;;;;5007819;28;20211;-77
2021/04/15 11:19:41;;;;;;;5.90;5.13;;;11.70;85.00;;;;;;5009716;28;20468;-78
2021/04/15 11:22:19;;;;;;;5.27;4.77;;;11.70;86.40;;;;;;5008288;28;21298;-77
2021/04/15 11:24:46;;;;;;;5.18;4.78;;;11.80;85.30;;;;;;5008095;28;20899;-79
2021/04/15 11:27:13;;;;;;;9.70;5.70;;;11.90;83.70;;;;;;5006821;28;20293;-77
2021/04/15 11:29:44;;;;;;;8.30;4.80;;;11.90;83.00;;;;;;5010747;28;20468;-77
2021/04/15 11:32:29;;;;;;;7.20;4.13;;;12.00;85.50;;;;;;5007366;28;20496;-79
2021/04/15 11:35:09;;;;;;;4.03;3.73;;;12.30;86.70;;;;;;5007559;28;20548;-78
2021/04/15 11:37:37;;;;;;;5.47;4.30;;;12.40;85.70;;;;;;5003790;28;20465;-77
2021/04/15 11:40:21;;;;;;;5.97;5.40;;;12.50;84.20;;;;;;5006819;28;21430;-77
2021/04/15 11:42:49;;;;;;;8.80;6.23;;;12.50;84.80;;;;;;5006434;28;20658;-78
2021/04/15 11:45:29;;;;;;;6.80;5.90;;;12.40;85.90;;;;;;5011713;28;20462;-77
2021/04/15 11:48:12;;;;;;;5.77;5.13;;;12.10;85.00;;;;;;5007519;28;20475;-77
2021/04/15 11:50:39;;;;;;;7.23;4.80;;;12.00;86.30;;;;;;5007025;28;20840;-79
2021/04/15 11:53:25;;;;;;;8.70;5.10;;;11.90;87.80;;;;;;5009094;28;20484;-78
2021/04/15 11:56:12;;;;;;;11.47;5.40;;;12.00;88.00;;;;;;5005309;28;21034;-80
2021/04/15 11:58:38;;;;;;;7.53;5.47;;;12.00;87.90;;;;;;5004743;28;20474;-79
2021/04/15 12:01:06;;;;;;;6.50;5.50;;;12.00;85.80;;;;;;4996454;28;20709;-77
2021/04/15 12:03:34;;;;;;;5.30;4.77;;;12.00;86.50;;;;;;5010277;28;20468;-80
2021/04/15 12:06:06;;;;;;;5.00;4.50;;;11.90;83.90;;;;;;5007081;28;20472;-78
2021/04/15 12:08:37;;;;;;;8.90;5.60;;;11.90;84.10;;;;;;5007466;28;20670;-78
2021/04/15 12:11:07;;;;;;;7.40;5.47;;;11.90;83.00;;;;;;5008359;28;20483;-79
2021/04/15 12:13:36;;;;;;;8.63;5.20;;;11.90;85.80;;;;;;5005050;28;20583;-78
2021/04/15 12:16:11;;;;;;;5.50;5.10;;;11.90;85.10;;;;;;5006945;28;20457;-81
2021/04/15 12:18:40;;;;;;;6.38;4.93;;;11.90;83.50;;;;;;5011638;28;20503;-80
2021/04/15 12:21:13;;;;;;;7.03;5.97;;;11.90;84.30;;;;;;4992486;28;20211;-80
2021/04/15 12:23:47;;;;;;;5.20;4.70;;;11.70;82.60;;;;;;5010714;28;20469;-78
2021/04/15 12:26:24;;;;;;;8.32;5.20;;;11.60;84.00;;;;;;5005436;28;20548;-78
2021/04/15 12:28:59;;;;;;;6.87;5.53;;;11.60;82.80;;;;;;5006705;28;20824;-81
2021/04/15 12:31:30;;;;;;;5.15;4.65;;;11.60;82.20;;;;;;5007850;28;20492;-78
2021/04/15 12:34:35;;;;;;;3.40;3.10;;;11.50;80.20;;;;;;5011463;28;20194;-82
2021/04/15 12:37:08;;;;;;;9.23;5.10;;;11.50;80.10;;;;;;5006129;28;20260;-77
2021/04/15 12:39:47;;;;;;;6.20;4.80;;;11.70;82.30;;;;;;5010054;28;20256;-78
2021/04/15 12:42:14;;;;;;;5.23;4.83;;;11.80;84.60;;;;;;5004649;28;20290;-78
2021/04/15 12:44:41;;;;;;;8.80;4.97;;;11.90;82.10;;;;;;5010811;28;20460;-77
2021/04/15 12:47:10;;;;;;;4.50;4.20;;;12.10;84.00;;;;;;5010369;28;20936;-82
2021/04/15 12:49:37;;;;;;;5.20;4.57;;;12.20;81.70;;;;;;5005412;28;21005;-78
2021/04/15 12:52:08;;;;;;;6.00;4.97;;;12.20;83.40;;;;;;5011282;28;20525;-81
2021/04/15 12:54:36;;;;;;;5.70;4.10;;;12.20;83.80;;;;;;5003017;28;20553;-77
2021/04/15 12:57:05;;;;;;;6.27;4.23;;;12.10;81.00;;;;;;5004738;28;20559;-78
2021/04/15 12:59:34;;;;;;;4.23;3.83;;;12.10;80.70;;;;;;5010255;28;20535;-79
2021/04/15 13:02:02;;;;;;;4.00;3.70;;;12.00;78.30;;;;;;5004977;28;20881;-77
2021/04/15 13:04:46;;;;;;;4.53;4.10;;;11.90;78.70;;;;;;5002539;28;20469;-78
2021/04/15 13:07:34;;;;;;;5.47;4.70;;;11.90;77.90;;;;;;5005939;28;20208;-78
2021/04/15 13:10:30;;;;;;;4.57;3.60;;;11.90;80.50;;;;;;5006386;28;20556;-77
2021/04/15 13:12:58;;;;;;;3.87;3.57;;;12.10;81.20;;;;;;5004878;28;20584;-78
2021/04/15 13:15:42;;;;;;;4.37;3.40;;;12.20;80.10;;;;;;5013352;28;20465;-78
2021/04/15 13:18:30;;;;;;;6.73;3.10;;;12.20;76.40;;;;;;5005656;28;21004;-78
2021/04/15 13:21:13;;;;;;;4.30;3.57;;;12.20;76.10;;;;;;5002874;28;20476;-77
2021/04/15 13:23:44;;;;;;;4.90;3.60;;;12.10;74.50;;;;;;5010249;28;20469;-78
2021/04/15 13:26:30;;;;;;;4.73;3.43;;;11.90;75.30;;;;;;5004026;28;20534;-78
2021/04/15 13:29:09;;;;;;;4.30;4.00;;;11.80;75.80;;;;;;5006868;28;20553;-77
2021/04/15 13:31:41;;;;;;;5.20;3.30;;;11.70;77.70;;;;;;4998476;28;20504;-78
2021/04/15 13:34:09;;;;;;;4.30;3.87;;;11.80;79.00;;;;;;5011126;28;20492;-77
2021/04/15 13:36:38;;;;;;;4.27;3.90;;;11.80;79.10;;;;;;5004581;28;20462;-81
2021/04/15 13:39:25;;;;;;;14.83;3.90;;;11.90;79.30;;;;;;5004734;28;20886;-80
2021/04/15 13:42:30;;;;;;;3.43;3.23;;;12.10;74.80;;;;;;5012506;28;20538;-77